Data for 04/06/2016

Time Sea-Level Adjusted Pressure Absolute Pressure Temperature Relative Humidity Dew Point   
(mb) (inHg) (mb) (inHg) (C) (F) (%) (C) (F)
00:05 1026 30.3 855 25.25 2.2 35.9 52 -6.7 19.9
00:10 1026 30.3 855 25.25 2.2 36 51 -6.8 19.7
00:15 1026 30.3 855 25.25 2.2 36 52 -6.7 19.9
00:20 1026 30.3 855 25.25 2 35.7 51 -7 19.3
00:25 1026 30.3 855 25.25 1.9 35.5 53 -6.7 19.9
00:30 1026 30.3 855 25.25 1.8 35.3 52 -7.1 19.1
00:35 1026 30.3 856 25.28 2 35.7 50 -7.2 19
00:40 1026 30.3 855 25.25 2.1 35.8 50 -7.3 18.9
00:45 1027 30.33 856 25.28 2.2 36 50 -7.1 19.2
00:50 1026 30.3 856 25.28 2.3 36.1 49 -7.2 19
00:55 1026 30.3 856 25.28 2.3 36.2 49 -7.4 18.7
01:00 1026 30.3 856 25.28 2.4 36.3 49 -7.1 19.1
01:05 1027 30.33 856 25.28 2.4 36.2 50 -7.1 19.2
01:10 1027 30.33 856 25.28 2.3 36.2 50 -7.1 19.3
01:15 1026 30.3 856 25.28 2.3 36.1 49 -7.4 18.7
01:20 1026 30.3 856 25.28 2.4 36.3 51 -6.7 19.9
01:25 1027 30.33 856 25.28 2.3 36.2 54 -6 21.2
01:30 1026 30.3 856 25.28 2.1 35.8 53 -6.4 20.4
01:35 1026 30.3 855 25.25 1.9 35.5 57 -5.6 21.9
01:40 1026 30.3 856 25.28 1.6 34.9 59 -5.6 21.9
01:45 1026 30.3 856 25.28 1.6 34.8 59 -5.7 21.8
01:50 1027 30.33 856 25.28 1.7 35.1 58 -5.6 21.9
01:55 1027 30.33 856 25.28 1.5 34.7 59 -5.6 22
02:00 1027 30.33 856 25.28 1.5 34.7 60 -5.4 22.3
02:05 1026 30.3 856 25.28 1.3 34.3 61 -5.3 22.4
02:10 1027 30.33 856 25.28 1.3 34.3 61 -5.3 22.4
02:15 1027 30.33 856 25.28 1.2 34.2 63 -5.1 22.8
02:20 1027 30.33 856 25.28 1.1 33.9 62 -5.3 22.4
02:25 1027 30.33 856 25.28 1 33.7 62 -5.6 21.9
02:30 1026 30.3 856 25.28 1 33.8 61 -5.6 21.9
02:35 1026 30.3 856 25.28 0.8 33.5 62 -5.6 22
02:40 1026 30.3 855 25.25 0.8 33.4 62 -5.6 21.9
02:45 1026 30.3 855 25.25 0.7 33.2 63 -5.5 22.1
02:50 1026 30.3 856 25.28 0.5 33 63 -5.6 21.9
02:55 1026 30.3 856 25.28 0.6 33.1 63 -5.7 21.8
03:00 1026 30.3 855 25.25 0.7 33.3 64 -5.4 22.3
03:05 1026 30.3 856 25.28 0.6 33.1 63 -5.6 21.8
03:10 1026 30.3 856 25.28 0.5 32.8 63 -5.7 21.7
03:15 1027 30.33 856 25.28 0.5 32.9 63 -5.7 21.7
03:20 1027 30.33 856 25.28 0.5 32.8 63 -5.8 21.6
03:25 1027 30.33 856 25.28 0.5 32.8 63 -5.8 21.6
03:30 1026 30.3 856 25.28 0.3 32.5 65 -5.5 22.1
03:35 1026 30.3 856 25.28 0.2 32.4 64 -5.8 21.5
03:40 1027 30.33 856 25.28 0.5 33 63 -5.7 21.7
03:45 1027 30.33 856 25.28 0.6 33.1 62 -5.8 21.5
03:50 1027 30.33 856 25.28 0.5 32.9 63 -5.8 21.6
03:55 1027 30.33 856 25.28 -0.1 31.8 67 -5.4 22.2
04:00 1027 30.33 856 25.28 -0.4 31.3 68 -5.6 21.9
04:05 1026 30.3 856 25.28 -0.4 31.3 69 -5.5 22.1
04:10 1027 30.33 856 25.28 -0.4 31.2 69 -5.4 22.3
04:15 1027 30.33 856 25.28 -0.5 31 69 -5.5 22.2
04:20 1027 30.33 856 25.28 -0.3 31.5 66 -5.8 21.5
04:25 1027 30.33 856 25.28 0.3 32.5 63 -5.9 21.4
04:30 1026 30.3 856 25.28 0.7 33.2 62 -5.8 21.6
04:35 1026 30.3 856 25.28 0.7 33.3 62 -5.7 21.8
04:40 1026 30.3 856 25.28 0.8 33.4 59 -6.3 20.6
04:45 1027 30.33 856 25.28 1.4 34.5 57 -6.3 20.7
04:50 1027 30.33 856 25.28 1.3 34.3 60 -5.7 21.7
04:55 1026 30.3 856 25.28 0.9 33.5 61 -5.8 21.5
05:00 1026 30.3 856 25.28 0.8 33.4 59 -6.2 20.8
05:05 1026 30.3 856 25.28 0.8 33.4 63 -5.5 22.2
05:10 1027 30.33 856 25.28 0.1 32.2 66 -5.6 22
05:15 1026 30.3 856 25.28 0.1 32.1 66 -5.6 21.9
05:20 1027 30.33 856 25.28 -0.1 31.8 67 -5.6 21.9
05:25 1027 30.33 856 25.28 0.1 32.1 65 -5.8 21.6
05:30 1027 30.33 856 25.28 0.5 32.9 62 -6 21.2
05:35 1027 30.33 856 25.28 1.3 34.3 58 -6.2 20.9
05:40 1027 30.33 856 25.28 1.4 34.5 58 -6 21.2
05:45 1027 30.33 856 25.28 1.4 34.6 57 -6.2 20.9
05:50 1027 30.33 856 25.28 1.2 34.1 61 -5.6 21.9
05:55 1027 30.33 856 25.28 1.1 33.9 56 -6.8 19.8
06:00 1027 30.33 856 25.28 2.1 35.8 55 -6 21.2
06:05 1027 30.33 856 25.28 1.5 34.8 59 -5.7 21.8
06:10 1027 30.33 856 25.28 1.4 34.6 55 -6.7 20
06:15 1027 30.33 856 25.28 2.2 36 52 -6.6 20.1
06:20 1027 30.33 856 25.28 2.4 36.4 54 -6 21.3
06:25 1027 30.33 856 25.28 2.2 36 53 -6.4 20.5
06:30 1027 30.33 856 25.28 2.5 36.5 53 -6.2 20.9
06:35 1027 30.33 856 25.28 2.1 35.8 57 -5.4 22.2
06:40 1027 30.33 856 25.28 1.5 34.8 61 -5.1 22.8
06:45 1026 30.3 856 25.28 1.5 34.7 62 -5.1 22.8
06:50 1027 30.33 856 25.28 1.4 34.5 63 -5 23
06:55 1027 30.33 856 25.28 1.7 35 61 -5 22.9
07:00 1027 30.33 856 25.28 2 35.7 57 -5.5 22.1
07:05 1027 30.33 856 25.28 2.3 36.2 56 -5.7 21.8
07:10 1027 30.33 856 25.28 2.9 37.2 52 -6 21.3
07:15 1027 30.33 856 25.28 3.2 37.8 55 -5 23
07:20 1027 30.33 856 25.28 3.1 37.6 53 -5.6 21.9
07:25 1027 30.33 856 25.28 3.4 38 52 -5.7 21.7
07:30 1027 30.33 856 25.28 3.4 38.1 52 -5.7 21.8
07:35 1027 30.33 856 25.28 3.3 38 52 -5.5 22
07:40 1027 30.33 856 25.28 3.5 38.2 51 -5.7 21.8
07:45 1027 30.33 856 25.28 3.6 38.5 51 -5.5 22.1
07:50 1027 30.33 856 25.28 3.8 38.8 51 -5.5 22.1
07:55 1027 30.33 856 25.28 4 39.2 50 -5.4 22.2
08:00 1027 30.33 856 25.28 4.1 39.4 51 -5.1 22.9
08:05 1027 30.33 857 25.31 4.1 39.3 51 -5 22.9
08:10 1027 30.33 857 25.31 4.3 39.7 51 -5 23
08:15 1028 30.36 857 25.31 4.6 40.3 48 -5.5 22.2
08:20 1028 30.36 857 25.31 5.1 41.2 45 -5.8 21.6
08:25 1028 30.36 857 25.31 5.9 42.6 43 -5.7 21.7
08:30 1028 30.36 857 25.31 6.8 44.2 41 -5.6 21.9
08:35 1028 30.36 857 25.31 7.1 44.7 40 -5.6 21.9
08:40 1028 30.36 857 25.31 7.3 45.2 40 -5.5 22
08:45 1028 30.36 857 25.31 7.2 45 40 -5.6 21.9
08:50 1028 30.36 857 25.31 7.5 45.5 40 -5.3 22.4
08:55 1027 30.33 857 25.31 8 46.4 39 -5.2 22.7
09:00 1027 30.33 857 25.31 8.5 47.4 35 -5.9 21.4
09:05 1027 30.33 856 25.28 8.9 48 35 -5.7 21.7
09:10 1027 30.33 856 25.28 8.7 47.6 35 -6 21.2
09:15 1027 30.33 856 25.28 8.6 47.4 37 -5.5 22.2
09:20 1027 30.33 856 25.28 9 48.2 36 -5.4 22.3
09:25 1027 30.33 856 25.28 9.2 48.6 36 -4.9 23.1
09:30 1027 30.33 856 25.28 9.3 48.8 36 -5.1 22.8
09:35 1027 30.33 856 25.28 9.5 49.2 36 -4.9 23.2
09:40 1027 30.33 856 25.28 9.5 49.2 36 -4.6 23.7
09:45 1027 30.33 856 25.28 10 50.1 34 -5.3 22.5
09:50 1027 30.33 856 25.28 9.9 49.7 35 -5 23
09:55 1027 30.33 856 25.28 10.1 50.3 35 -4.7 23.6
10:00 1027 30.33 856 25.28 10.9 51.7 33 -4.8 23.4
10:05 1027 30.33 856 25.28 10.7 51.3 34 -4.3 24.2
10:10 1027 30.33 856 25.28 10.2 50.4 36 -4.1 24.7
10:15 1027 30.33 856 25.28 10.1 50.1 36 -4.2 24.4
10:20 1027 30.33 856 25.28 10.2 50.3 36 -4.1 24.6
10:25 1027 30.33 856 25.28 10.3 50.5 37 -3.9 25
10:30 1027 30.33 856 25.28 10.2 50.3 36 -4.2 24.5
10:35 1027 30.33 856 25.28 9.9 49.9 37 -4.1 24.6
10:40 1027 30.33 856 25.28 9.7 49.4 38 -3.9 25.1
10:45 1026 30.3 856 25.28 9.2 48.6 39 -4 24.8
10:50 1026 30.3 855 25.25 9.5 49.1 37 -4.3 24.2
10:55 1026 30.3 855 25.25 9.3 48.8 38 -4.2 24.4
11:00 1026 30.3 855 25.25 9.8 49.7 37 -4.2 24.5
11:05 1026 30.3 855 25.25 10.3 50.5 35 -4.4 24
11:10 1026 30.3 855 25.25 11.5 52.6 33 -4.3 24.2
11:15 1026 30.3 855 25.25 11.9 53.4 32 -4.2 24.4
11:20 1026 30.3 855 25.25 12.1 53.7 32 -4 24.8
11:25 1026 30.3 855 25.25 11.9 53.4 33 -3.8 25.2
11:30 1026 30.3 855 25.25 11.8 53.2 33 -3.8 25.2
11:35 1026 30.3 855 25.25 11.8 53.2 34 -3.7 25.3
11:40 1026 30.3 855 25.25 12 53.5 33 -3.6 25.5
11:45 1025 30.27 855 25.25 12.2 53.9 33 -3.5 25.7
11:50 1025 30.27 854 25.22 12.2 54 33 -3.7 25.4
11:55 1025 30.27 854 25.22 12.4 54.3 33 -3.6 25.5
12:00 1025 30.27 854 25.22 12.5 54.4 32 -3.9 25
12:05 1025 30.27 854 25.22 12.8 55.1 30 -4.2 24.4
12:10 1025 30.27 854 25.22 13.1 55.5 30 -4.1 24.6
12:15 1024 30.24 854 25.22 13.1 55.6 30 -3.8 25.1
12:20 1024 30.24 854 25.22 13.2 55.8 30 -3.9 25
12:25 1024 30.24 854 25.22 13.1 55.5 31 -3.7 25.3
12:30 1025 30.27 854 25.22 13 55.5 31 -3.8 25.2
12:35 1025 30.27 854 25.22 13.1 55.6 31 -3.7 25.3
12:40 1025 30.27 854 25.22 13 55.4 30 -3.9 24.9
12:45 1025 30.27 854 25.22 13 55.5 31 -3.5 25.8
12:50 1025 30.27 854 25.22 13.1 55.5 30 -4 24.9
12:55 1024 30.24 854 25.22 13.1 55.6 30 -3.8 25.1
13:00 1024 30.24 854 25.22 13.1 55.6 30 -4 24.8
13:05 1024 30.24 853 25.19 13.1 55.6 31 -3.6 25.4
13:10 1024 30.24 853 25.19 13.2 55.7 30 -4.1 24.7
13:15 1024 30.24 853 25.19 13.2 55.8 31 -3.6 25.5
13:20 1024 30.24 853 25.19 13.4 56.1 31 -3.5 25.7
13:25 1024 30.24 853 25.19 13.6 56.5 31 -3.2 26.3
13:30 1024 30.24 853 25.19 13.7 56.6 30 -3.5 25.8
13:35 1024 30.24 853 25.19 13.9 57 29 -3.7 25.3
13:40 1024 30.24 853 25.19 14 57.2 29 -3.5 25.7
13:45 1023 30.21 853 25.19 14.2 57.5 29 -3.6 25.6
13:50 1023 30.21 853 25.19 14.5 58.2 28 -3.8 25.2
13:55 1023 30.21 852 25.16 14.9 58.8 28 -3.4 25.8
14:00 1023 30.21 852 25.16 15.5 59.9 26 -3.7 25.4
14:05 1023 30.21 852 25.16 15.8 60.4 26 -3.4 25.9
14:10 1023 30.21 852 25.16 16.3 61.3 26 -3.4 26
14:15 1023 30.21 852 25.16 16.4 61.6 25 -3.5 25.7
14:20 1023 30.21 852 25.16 16.2 61.2 25 -3.5 25.6
14:25 1023 30.21 852 25.16 16.4 61.4 25 -3.6 25.5
14:30 1023 30.21 852 25.16 16.1 61 26 -3.4 25.9
14:35 1023 30.21 852 25.16 15.8 60.4 26 -3.4 25.9
14:40 1023 30.21 852 25.16 15.8 60.5 26 -3.6 25.6
14:45 1023 30.21 852 25.16 15.7 60.3 26 -3.6 25.5
14:50 1023 30.21 852 25.16 16 60.8 26 -3.5 25.7
14:55 1023 30.21 852 25.16 15.9 60.6 26 -3.4 25.9
15:00 1023 30.21 852 25.16 15.8 60.4 27 -3 26.5
15:05 1023 30.21 852 25.16 15.7 60.2 27 -3.2 26.2
15:10 1023 30.21 852 25.16 15.8 60.4 27 -2.9 26.8
15:15 1023 30.21 852 25.16 16.1 60.9 26 -3.4 25.9
15:20 1023 30.21 852 25.16 16.1 61 27 -2.9 26.8
15:25 1023 30.21 852 25.16 16 60.9 26 -3.3 26
15:30 1023 30.21 852 25.16 16.1 60.9 26 -3.2 26.3
15:35 1023 30.21 852 25.16 15.9 60.6 27 -3.2 26.3
15:40 1023 30.21 852 25.16 16 60.7 26 -3.2 26.2
15:45 1023 30.21 852 25.16 16 60.8 26 -3.4 25.9
15:50 1023 30.21 852 25.16 15.8 60.4 26 -3.6 25.5
15:55 1023 30.21 852 25.16 15.7 60.3 26 -3.5 25.6
16:00 1023 30.21 852 25.16 15.9 60.6 26 -3.4 25.8
16:05 1023 30.21 852 25.16 16 60.8 26 -3.4 25.8
16:10 1023 30.21 852 25.16 16.3 61.4 24 -4.1 24.5
16:15 1022 30.18 852 25.16 16.3 61.3 24 -4 24.9
16:20 1022 30.18 852 25.16 16.4 61.5 24 -4 24.9
16:25 1022 30.18 852 25.16 16.4 61.6 25 -3.6 25.5
16:30 1022 30.18 852 25.16 16.5 61.7 24 -3.8 25.2
16:35 1022 30.18 852 25.16 16.3 61.3 25 -3.7 25.4
16:40 1022 30.18 852 25.16 16.4 61.4 26 -3.3 26
16:45 1022 30.18 852 25.16 16.4 61.4 25 -3.7 25.3
16:50 1022 30.18 852 25.16 16.3 61.3 25 -3.6 25.6
16:55 1022 30.18 851 25.13 16.5 61.7 24 -4.3 24.3
17:00 1022 30.18 851 25.13 16.5 61.8 23 -4.4 24.2
17:05 1022 30.18 851 25.13 16.5 61.6 24 -4.3 24.3
17:10 1022 30.18 851 25.13 16.3 61.4 24 -4 24.7
17:15 1022 30.18 851 25.13 16.1 60.9 25 -3.8 25.1
17:20 1022 30.18 851 25.13 16 60.7 24 -4.6 23.8
17:25 1022 30.18 851 25.13 15.9 60.5 25 -4.3 24.3
17:30 1022 30.18 851 25.13 15.7 60.3 25 -4.1 24.7
17:35 1022 30.18 851 25.13 15.7 60.2 25 -4.2 24.4
17:40 1022 30.18 851 25.13 15.6 60 26 -4 24.9
17:45 1022 30.18 851 25.13 15.5 59.8 26 -3.9 25
17:50 1022 30.18 852 25.16 15.3 59.6 27 -3.6 25.4
17:55 1022 30.18 852 25.16 15.2 59.3 27 -3.4 25.8
18:00 1022 30.18 852 25.16 15 59 28 -3.2 26.2
18:05 1022 30.18 852 25.16 14.8 58.6 29 -3.2 26.3
18:10 1022 30.18 852 25.16 14.6 58.3 29 -3.2 26.3
18:15 1023 30.21 852 25.16 14.5 58 29 -3.2 26.3
18:20 1023 30.21 852 25.16 14.3 57.8 30 -3.1 26.4
18:25 1023 30.21 852 25.16 14.2 57.6 30 -3 26.5
18:30 1023 30.21 852 25.16 14 57.2 31 -2.9 26.8
18:35 1023 30.21 852 25.16 13.8 56.8 32 -2.8 27
18:40 1023 30.21 852 25.16 13.5 56.2 33 -2.5 27.5
18:45 1023 30.21 852 25.16 13.2 55.7 33 -2.8 26.9
18:50 1023 30.21 852 25.16 13 55.4 32 -3.1 26.4
18:55 1022 30.18 852 25.16 12.9 55.2 32 -3.4 25.9
19:00 1022 30.18 852 25.16 12.8 55 32 -3.6 25.6
19:05 1022 30.18 852 25.16 12.6 54.7 32 -3.6 25.5
19:10 1022 30.18 852 25.16 12.4 54.4 32 -3.7 25.3
19:15 1022 30.18 852 25.16 12.3 54.1 32 -3.8 25.1
19:20 1022 30.18 852 25.16 12.1 53.8 32 -4.1 24.7
19:25 1023 30.21 852 25.16 12.1 53.7 32 -4.1 24.6
19:30 1023 30.21 852 25.16 12 53.5 32 -4.1 24.7
19:35 1023 30.21 852 25.16 11.9 53.3 32 -4.1 24.6
19:40 1023 30.21 852 25.16 11.7 53 33 -4.1 24.6
19:45 1023 30.21 852 25.16 11.5 52.8 33 -4.2 24.4
19:50 1023 30.21 852 25.16 11.4 52.6 33 -4.3 24.2
19:55 1023 30.21 852 25.16 11.4 52.5 33 -4.2 24.4
20:00 1023 30.21 852 25.16 11.3 52.4 33 -4.2 24.4
20:05 1023 30.21 853 25.19 11.2 52.2 33 -4.3 24.3
20:10 1024 30.24 853 25.19 11.2 52.1 34 -4.2 24.4
20:15 1024 30.24 853 25.19 11 51.7 35 -4 24.8
20:20 1024 30.24 853 25.19 10.6 51 39 -2.7 27.1
20:25 1024 30.24 853 25.19 9.1 48.4 43 -3 26.7
20:30 1024 30.24 853 25.19 8.8 47.9 41 -3.6 25.6
20:35 1024 30.24 853 25.19 9.2 48.5 39 -3.9 24.9
20:40 1024 30.24 853 25.19 9.5 49 38 -4.2 24.5
20:45 1024 30.24 853 25.19 9.8 49.7 37 -4 24.7
20:50 1024 30.24 853 25.19 9.8 49.6 39 -3.7 25.4
20:55 1024 30.24 853 25.19 9.7 49.4 37 -4.2 24.5
21:00 1024 30.24 853 25.19 9.7 49.5 38 -4 24.9
21:05 1024 30.24 853 25.19 9.6 49.3 38 -4 24.8
21:10 1024 30.24 854 25.22 9.6 49.2 39 -3.9 25.1
21:15 1024 30.24 854 25.22 9.3 48.7 39 -3.8 25.2
21:20 1024 30.24 854 25.22 8.9 48.1 43 -3 26.7
21:25 1024 30.24 854 25.22 7.7 45.9 46 -3.1 26.4
21:30 1025 30.27 854 25.22 7.7 45.9 45 -3.4 25.8
21:35 1025 30.27 854 25.22 7.8 46.1 44 -3.7 25.3
21:40 1025 30.27 854 25.22 8.1 46.7 43 -3.6 25.6
21:45 1025 30.27 854 25.22 8.3 47 41 -4.1 24.5
21:50 1025 30.27 854 25.22 8.8 47.9 40 -3.9 24.9
21:55 1025 30.27 854 25.22 8.8 47.9 40 -4.1 24.6
22:00 1025 30.27 854 25.22 9 48.2 39 -4.2 24.4
22:05 1025 30.27 854 25.22 9 48.2 40 -3.9 24.9
22:10 1025 30.27 854 25.22 8.9 47.9 40 -3.9 24.9
22:15 1025 30.27 854 25.22 8.7 47.6 41 -3.7 25.4
22:20 1025 30.27 854 25.22 8.3 47 42 -3.7 25.3
22:25 1025 30.27 854 25.22 8 46.5 43 -3.8 25.2
22:30 1025 30.27 854 25.22 8.1 46.5 43 -3.9 25
22:35 1025 30.27 854 25.22 8.1 46.6 43 -3.9 25.1
22:40 1025 30.27 854 25.22 8.1 46.6 42 -4 24.9
22:45 1025 30.27 854 25.22 8.1 46.5 43 -3.7 25.4
22:50 1025 30.27 854 25.22 7.6 45.7 45 -3.6 25.4
22:55 1025 30.27 854 25.22 7.4 45.3 46 -3.3 26
23:00 1025 30.27 854 25.22 7.3 45.2 44 -4.1 24.5
23:05 1025 30.27 854 25.22 7.7 45.8 43 -4.1 24.5
23:10 1025 30.27 854 25.22 7.9 46.3 43 -3.9 24.9
23:15 1025 30.27 854 25.22 8 46.4 42 -4.1 24.6
23:20 1025 30.27 854 25.22 8.3 47 40 -4.3 24.2
23:25 1025 30.27 854 25.22 8.5 47.2 40 -4.3 24.2
23:30 1025 30.27 854 25.22 8.5 47.2 40 -4.4 24
23:35 1025 30.27 854 25.22 8.5 47.3 39 -4.6 23.8
23:40 1025 30.27 854 25.22 8.5 47.4 40 -4.4 24.1
23:45 1025 30.27 854 25.22 8.4 47.1 40 -4.3 24.2
23:50 1025 30.27 854 25.22 8.2 46.8 40 -4.5 24
23:55 1025 30.27 854 25.22 8.3 46.9 39 -4.9 23.3
24:00 1025 30.27 854 25.22 8.5 47.4 38 -4.9 23.2